Time;durP1;ratioP1;P1;durP2;ratioP2;P2;SDS_P1;SDS_P2;PMS_P1;PMS_P2;Temp;Humidity;BMP_temperature;BMP_pressure;BME280_temperature;BME280_humidity;BME280_pressure;Samples;Min_cycle;Max_cycle;Signal;HPM_P1;HPM_P2
2021/09/17 00:01:54;;;;;;;82.12;47.23;;;;;;;12.06;56.07;100383.81;1718602;82;21465;-65
2021/09/17 00:04:20;;;;;;;85.40;46.60;;;;;;;12.04;56.12;100382.63;1761871;80;20900;-65
2021/09/17 00:06:47;;;;;;;85.85;46.85;;;;;;;12.02;56.16;100380.59;1729829;82;20969;-65
2021/09/17 00:09:15;;;;;;;80.25;46.98;;;;;;;11.99;56.22;100381.36;1768959;80;21506;-65
2021/09/17 00:11:45;;;;;;;81.25;46.48;;;;;;;11.96;56.26;100377.14;1744936;80;20957;-65
2021/09/17 00:14:13;;;;;;;81.97;45.90;;;;;;;11.95;56.38;100377.27;1709191;82;21417;-65
2021/09/17 00:16:39;;;;;;;85.65;46.65;;;;;;;11.93;56.36;100385.34;1746922;80;21051;-65
2021/09/17 00:19:07;;;;;;;81.80;46.58;;;;;;;11.91;56.43;100373.22;1762930;80;21001;-65
2021/09/17 00:21:35;;;;;;;79.47;47.90;;;;;;;11.88;56.53;100368.20;1770114;80;20969;-65
2021/09/17 00:24:04;;;;;;;86.40;48.15;;;;;;;11.86;56.61;100366.14;1750414;80;20972;-65
2021/09/17 00:26:31;;;;;;;83.17;48.60;;;;;;;11.81;56.66;100371.84;1744799;82;21526;-65
2021/09/17 00:28:57;;;;;;;84.52;49.35;;;;;;;11.78;56.72;100365.46;1747125;80;20960;-65
2021/09/17 00:31:24;;;;;;;86.12;50.73;;;;;;;11.77;56.74;100369.05;1744582;80;20961;-65
2021/09/17 00:33:51;;;;;;;90.60;50.23;;;;;;;11.76;56.77;100367.38;1720165;80;21052;-65
2021/09/17 00:36:17;;;;;;;85.03;47.73;;;;;;;11.74;56.83;100365.34;1763188;80;21792;-67
2021/09/17 00:38:44;;;;;;;84.00;47.60;;;;;;;11.70;56.92;100360.81;1744377;82;20938;-64
2021/09/17 00:41:12;;;;;;;83.00;48.80;;;;;;;11.67;56.97;100358.40;1769828;80;21032;-64
2021/09/17 00:43:40;;;;;;;82.47;47.13;;;;;;;11.65;57.00;100359.50;1754178;80;21004;-67
2021/09/17 00:46:06;;;;;;;80.20;45.58;;;;;;;11.62;57.05;100351.84;1749898;80;20941;-65
2021/09/17 00:48:34;;;;;;;77.75;45.58;;;;;;;11.60;57.08;100345.36;1728654;80;22605;-65
2021/09/17 00:51:01;;;;;;;76.37;44.48;;;;;;;11.58;57.15;100348.63;1752309;80;21082;-65
2021/09/17 00:53:33;;;;;;;76.42;44.40;;;;;;;11.55;57.19;100353.31;1764561;80;21027;-65
2021/09/17 00:55:58;;;;;;;78.15;43.68;;;;;;;11.51;57.27;100340.84;1724719;82;20992;-65
2021/09/17 00:58:24;;;;;;;76.07;43.80;;;;;;;11.46;57.37;100339.88;1703541;82;20952;-65
2021/09/17 01:00:50;;;;;;;74.60;43.05;;;;;;;11.43;57.44;100333.53;1747115;80;23847;-65
2021/09/17 01:03:17;;;;;;;79.37;43.55;;;;;;;11.38;57.49;100333.06;1750122;80;21040;-65
2021/09/17 01:05:43;;;;;;;72.92;42.78;;;;;;;11.36;57.58;100336.81;1754239;80;20936;-65
2021/09/17 01:08:10;;;;;;;77.75;43.92;;;;;;;11.32;57.67;100329.63;1775363;80;21406;-65
2021/09/17 01:10:38;;;;;;;72.55;41.75;;;;;;;11.29;57.78;100330.34;1760973;80;21446;-65
2021/09/17 01:13:04;;;;;;;74.77;43.28;;;;;;;11.27;57.89;100327.84;1758962;80;21809;-66
2021/09/17 01:15:32;;;;;;;75.03;42.45;;;;;;;11.25;57.96;100319.20;1742873;80;21448;-66
2021/09/17 01:17:58;;;;;;;69.90;41.73;;;;;;;11.24;58.01;100318.02;1750574;80;20957;-65
2021/09/17 01:20:26;;;;;;;76.40;42.62;;;;;;;11.21;58.03;100315.63;1761766;80;20956;-64
2021/09/17 01:22:55;;;;;;;67.53;40.70;;;;;;;11.20;58.04;100316.60;1772839;80;20901;-64
2021/09/17 01:25:23;;;;;;;72.85;41.37;;;;;;;11.18;58.07;100315.37;1710728;82;21429;-64
2021/09/17 01:27:52;;;;;;;72.05;40.60;;;;;;;11.16;58.15;100315.52;1708540;84;21064;-65
2021/09/17 01:30:19;;;;;;;67.17;38.85;;;;;;;11.14;58.28;100307.36;1724498;82;21047;-65
2021/09/17 01:32:46;;;;;;;67.10;38.48;;;;;;;11.12;58.34;100307.98;1753767;80;20987;-65
2021/09/17 01:35:15;;;;;;;65.15;37.85;;;;;;;11.09;58.36;100299.80;1750444;80;21009;-65
2021/09/17 01:37:42;;;;;;;60.83;36.60;;;;;;;11.09;58.44;100299.80;1751224;80;21697;-65
2021/09/17 01:40:11;;;;;;;60.55;37.65;;;;;;;11.07;58.45;100299.57;1735430;80;21011;-64
2021/09/17 01:42:38;;;;;;;66.92;38.53;;;;;;;11.06;58.50;100297.90;1744757;80;20929;-66
2021/09/17 01:45:07;;;;;;;75.75;41.08;;;;;;;11.04;58.57;100296.70;1756906;80;20949;-65
2021/09/17 01:47:33;;;;;;;66.92;39.60;;;;;;;11.01;58.70;100297.45;1752578;80;20940;-65
2021/09/17 01:50:00;;;;;;;65.10;37.55;;;;;;;10.96;58.79;100292.53;1763555;80;21817;-65
2021/09/17 01:52:27;;;;;;;67.25;38.28;;;;;;;10.94;58.79;100287.02;1752455;80;20936;-64
2021/09/17 01:54:53;;;;;;;63.40;37.70;;;;;;;10.91;58.89;100292.09;1765377;80;20956;-65
2021/09/17 01:57:22;;;;;;;65.83;37.50;;;;;;;10.88;58.96;100289.19;1752335;81;21031;-65
2021/09/17 01:59:48;;;;;;;65.40;37.88;;;;;;;10.87;58.98;100283.55;1771401;80;21072;-65
2021/09/17 02:02:14;;;;;;;60.78;35.40;;;;;;;10.87;59.04;100281.39;1742079;82;21906;-65
2021/09/17 02:04:42;;;;;;;60.08;36.10;;;;;;;10.85;59.09;100278.88;1759089;80;21487;-65
2021/09/17 02:07:08;;;;;;;54.48;34.78;;;;;;;10.83;59.20;100272.05;1775197;80;21083;-65
2021/09/17 02:09:37;;;;;;;57.88;35.90;;;;;;;10.81;59.27;100270.03;1779230;80;20932;-65
2021/09/17 02:12:06;;;;;;;58.30;35.08;;;;;;;10.80;59.34;100268.32;1752485;80;21110;-64
2021/09/17 02:14:34;;;;;;;60.20;33.90;;;;;;;10.78;59.44;100260.53;1749841;80;21320;-64
2021/09/17 02:17:01;;;;;;;59.03;33.58;;;;;;;10.77;59.49;100262.81;1731272;82;21025;-64
2021/09/17 02:19:28;;;;;;;53.55;32.95;;;;;;;10.78;59.50;100261.01;1757861;80;21020;-65
2021/09/17 02:21:55;;;;;;;54.00;31.07;;;;;;;10.77;59.53;100258.85;1752493;82;21142;-65
2021/09/17 02:24:22;;;;;;;55.60;31.93;;;;;;;10.75;59.56;100259.47;1760090;80;21028;-65
2021/09/17 02:26:49;;;;;;;53.95;31.45;;;;;;;10.75;59.63;100264.75;1765699;80;21914;-66
2021/09/17 02:29:16;;;;;;;54.08;31.02;;;;;;;10.75;59.64;100260.79;1781037;80;20941;-66
2021/09/17 02:31:43;;;;;;;55.83;31.82;;;;;;;10.74;59.65;100261.75;1769874;80;21055;-65
2021/09/17 02:34:09;;;;;;;52.95;31.82;;;;;;;10.74;59.71;100259.59;1723319;80;21134;-65
2021/09/17 02:36:36;;;;;;;55.78;34.00;;;;;;;10.73;59.78;100253.96;1752643;80;20964;-64
2021/09/17 02:39:03;;;;;;;55.83;33.48;;;;;;;10.69;59.72;100252.52;1770598;80;21827;-66
2021/09/17 02:41:30;;;;;;;50.00;30.72;;;;;;;10.66;59.74;100248.81;1761336;80;20988;-64
2021/09/17 02:43:56;;;;;;;54.58;31.40;;;;;;;10.64;59.79;100243.66;1772535;80;20969;-64
2021/09/17 02:46:23;;;;;;;55.05;30.37;;;;;;;10.64;59.82;100238.38;1757767;80;20988;-66
2021/09/17 02:48:49;;;;;;;45.67;29.15;;;;;;;10.64;59.87;100236.22;1745136;80;21008;-64
2021/09/17 02:51:15;;;;;;;51.92;28.80;;;;;;;10.63;59.89;100231.42;1744714;80;21738;-64
2021/09/17 02:53:42;;;;;;;50.20;28.05;;;;;;;10.61;59.91;100233.33;1744603;80;20992;-64
2021/09/17 02:56:10;;;;;;;46.10;27.40;;;;;;;10.63;59.86;100231.91;1740780;80;21564;-66
2021/09/17 02:58:38;;;;;;;49.30;26.93;;;;;;;10.63;59.84;100229.27;1759954;80;21498;-64
2021/09/17 03:01:05;;;;;;;47.53;28.23;;;;;;;10.63;59.75;100223.98;1744654;80;20993;-66
2021/09/17 03:03:32;;;;;;;52.10;28.77;;;;;;;10.61;59.75;100222.77;1705984;84;21833;-66
2021/09/17 03:05:59;;;;;;;52.15;28.90;;;;;;;10.58;59.73;100223.86;1689923;84;21029;-66
2021/09/17 03:08:27;;;;;;;50.95;28.75;;;;;;;10.54;59.86;100221.61;1745386;80;21428;-64
2021/09/17 03:10:57;;;;;;;48.98;27.67;;;;;;;10.49;59.93;100215.36;1759671;80;20949;-65
2021/09/17 03:13:25;;;;;;;49.60;27.02;;;;;;;10.49;59.94;100210.56;1747430;80;21059;-66
2021/09/17 03:15:52;;;;;;;44.35;25.43;;;;;;;10.49;59.96;100210.56;1769796;80;21737;-66
2021/09/17 03:18:20;;;;;;;43.48;24.50;;;;;;;10.51;59.97;100204.67;1756647;80;21494;-67
2021/09/17 03:20:49;;;;;;;43.60;24.87;;;;;;;10.52;59.97;100205.05;1774222;80;20996;-66
2021/09/17 03:23:18;;;;;;;43.42;23.70;;;;;;;10.50;59.97;100201.20;1716340;82;21013;-66
2021/09/17 03:25:44;;;;;;;43.90;24.27;;;;;;;10.49;60.04;100200.00;1708404;84;20981;-65
2021/09/17 03:28:11;;;;;;;37.38;22.90;;;;;;;10.47;60.09;100196.66;1754843;80;21835;-64
2021/09/17 03:30:38;;;;;;;41.35;22.77;;;;;;;10.48;60.15;100198.33;1747392;80;21489;-66
2021/09/17 03:33:05;;;;;;;34.95;21.62;;;;;;;10.46;60.19;100202.42;1744884;80;20932;-64
2021/09/17 03:35:31;;;;;;;41.35;22.13;;;;;;;10.48;60.23;100200.97;1767863;80;21004;-64
2021/09/17 03:37:58;;;;;;;40.78;21.70;;;;;;;10.48;60.25;100208.41;1748900;80;21091;-64
2021/09/17 03:40:26;;;;;;;36.85;22.30;;;;;;;10.49;60.21;100202.64;1744577;80;21436;-65
2021/09/17 03:42:53;;;;;;;35.90;20.88;;;;;;;10.49;60.17;100203.48;1751879;80;21047;-64
2021/09/17 03:45:19;;;;;;;34.20;19.27;;;;;;;10.50;60.14;100196.39;1724658;80;21023;-64
2021/09/17 03:47:46;;;;;;;35.38;20.15;;;;;;;10.51;60.21;100200.71;1740338;80;20969;-64
2021/09/17 03:50:13;;;;;;;36.40;19.95;;;;;;;10.48;60.21;100195.69;1713438;80;20945;-65
2021/09/17 03:52:39;;;;;;;38.50;20.77;;;;;;;10.45;60.25;100203.39;1773508;80;21705;-65
2021/09/17 03:55:07;;;;;;;38.40;20.77;;;;;;;10.41;60.33;100208.55;1754453;80;22289;-65
2021/09/17 03:57:34;;;;;;;37.67;22.22;;;;;;;10.42;60.42;100201.01;1737886;80;20968;-64
2021/09/17 04:00:01;;;;;;;43.98;23.50;;;;;;;10.43;60.46;100204.48;1760463;80;21040;-66
2021/09/17 04:02:27;;;;;;;36.08;21.87;;;;;;;10.44;60.46;100212.28;1739747;80;21000;-65
2021/09/17 04:04:53;;;;;;;39.38;21.95;;;;;;;10.44;60.53;100208.31;1765391;80;22476;-65
2021/09/17 04:07:20;;;;;;;37.23;21.48;;;;;;;10.44;60.54;100214.08;1723995;82;21091;-65
2021/09/17 04:09:47;;;;;;;35.52;20.10;;;;;;;10.44;60.58;100210.13;1705461;83;21148;-65
2021/09/17 04:12:13;;;;;;;34.25;20.12;;;;;;;10.45;60.60;100211.80;1724991;82;20981;-66
2021/09/17 04:14:40;;;;;;;38.17;20.17;;;;;;;10.45;60.58;100206.03;1689435;83;21022;-66
2021/09/17 04:17:06;;;;;;;35.58;18.77;;;;;;;10.46;60.61;100207.70;1705885;83;22500;-67
2021/09/17 04:19:36;;;;;;;30.88;18.40;;;;;;;10.46;60.65;100201.59;1706220;82;21123;-65
2021/09/17 04:22:05;;;;;;;35.68;18.60;;;;;;;10.44;60.69;100205.67;1702214;83;21419;-65
2021/09/17 04:24:33;;;;;;;30.90;18.17;;;;;;;10.44;60.75;100200.88;1697148;83;20982;-65
2021/09/17 04:27:00;;;;;;;33.00;18.55;;;;;;;10.43;60.85;100200.52;1699193;83;21081;-65
2021/09/17 04:29:27;;;;;;;34.50;18.12;;;;;;;10.43;60.99;100197.88;1707420;83;21778;-66
2021/09/17 04:31:55;;;;;;;34.33;18.10;;;;;;;10.43;60.99;100197.88;1720838;82;20954;-65
2021/09/17 04:34:23;;;;;;;35.30;18.98;;;;;;;10.45;61.04;100194.62;1721862;82;21353;-65
2021/09/17 04:36:51;;;;;;;40.58;17.45;;;;;;;10.45;61.03;100196.79;1720507;83;20985;-65
2021/09/17 04:39:18;;;;;;;37.40;18.92;;;;;;;10.49;60.99;100197.36;1709720;83;21087;-64
2021/09/17 04:41:46;;;;;;;53.40;19.35;;;;;;;10.51;61.03;100200.71;1716205;83;22508;-64
2021/09/17 04:44:12;;;;;;;43.05;19.07;;;;;;;10.53;61.05;100193.53;1702481;82;21021;-64
2021/09/17 04:46:39;;;;;;;36.70;18.50;;;;;;;10.55;61.12;100192.91;1716524;83;21083;-64
2021/09/17 04:49:06;;;;;;;32.75;17.95;;;;;;;10.59;61.14;100193.00;1719833;83;21045;-66
2021/09/17 04:51:33;;;;;;;31.17;17.30;;;;;;;10.63;61.18;100189.16;1681667;84;21110;-63
2021/09/17 04:53:59;;;;;;;34.70;17.00;;;;;;;10.69;61.24;100190.44;1701970;84;22599;-67
2021/09/17 04:56:28;;;;;;;30.02;15.38;;;;;;;10.75;61.28;100193.91;1711341;83;22144;-65
2021/09/17 04:58:54;;;;;;;31.65;14.75;;;;;;;10.82;61.32;100191.12;1731027;82;21432;-65
2021/09/17 05:01:21;;;;;;;33.50;15.72;;;;;;;10.90;61.33;100191.30;1730890;82;21271;-65
2021/09/17 05:03:50;;;;;;;29.55;14.13;;;;;;;11.00;61.32;100192.23;1731014;82;20873;-66
2021/09/17 05:06:16;;;;;;;28.85;13.13;;;;;;;11.12;61.31;100187.70;1731127;82;21921;-66
2021/09/17 05:08:44;;;;;;;24.43;12.70;;;;;;;11.24;61.24;100183.17;1730714;82;21036;-67
2021/09/17 05:11:12;;;;;;;21.17;12.95;;;;;;;11.37;61.16;100186.44;1731012;82;21045;-65
2021/09/17 05:13:39;;;;;;;27.70;12.10;;;;;;;11.52;60.99;100181.65;1711281;82;21499;-65
2021/09/17 05:16:07;;;;;;;19.50;11.18;;;;;;;11.68;60.88;100182.84;1712309;83;20961;-65
2021/09/17 05:18:33;;;;;;;23.02;11.38;;;;;;;11.85;60.64;100180.54;1710134;83;21836;-66
2021/09/17 05:21:00;;;;;;;26.30;10.98;;;;;;;12.00;60.38;100175.23;1730330;82;21061;-65
2021/09/17 05:23:28;;;;;;;25.97;10.80;;;;;;;12.18;60.19;100177.58;1722397;82;20991;-66
2021/09/17 05:25:56;;;;;;;17.25;10.38;;;;;;;12.36;60.01;100171.12;1710179;83;21040;-64
2021/09/17 05:28:24;;;;;;;20.77;9.68;;;;;;;12.53;59.58;100166.92;1704163;83;20960;-65
2021/09/17 05:30:52;;;;;;;14.63;8.90;;;;;;;12.74;59.20;100167.64;1722761;83;21844;-64
2021/09/17 05:33:18;;;;;;;20.30;8.85;;;;;;;12.95;58.81;100168.80;1712494;82;20988;-63
2021/09/17 05:35:45;;;;;;;20.40;8.15;;;;;;;13.14;58.34;100167.44;1701837;84;20961;-64
2021/09/17 05:38:12;;;;;;;18.30;8.03;;;;;;;13.33;57.91;100169.72;1701775;83;21491;-64
2021/09/17 05:40:38;;;;;;;19.00;8.58;;;;;;;13.51;57.28;100165.80;1710500;82;21111;-64
2021/09/17 05:43:05;;;;;;;21.80;8.30;;;;;;;13.71;56.75;100159.45;1723679;82;22633;-64
2021/09/17 05:45:31;;;;;;;21.17;8.13;;;;;;;13.89;56.16;100154.16;1724305;82;22290;-64
2021/09/17 05:47:58;;;;;;;22.22;7.53;;;;;;;14.09;55.35;100153.09;1725947;83;21021;-63
2021/09/17 05:50:25;;;;;;;15.28;7.12;;;;;;;14.30;54.52;100156.29;1730931;82;20957;-63
2021/09/17 05:52:51;;;;;;;15.88;7.35;;;;;;;14.49;53.96;100151.84;1728933;82;21056;-63
2021/09/17 05:55:20;;;;;;;17.45;6.80;;;;;;;14.68;53.35;100143.71;1731143;82;22429;-63
2021/09/17 05:57:48;;;;;;;22.00;7.00;;;;;;;14.86;52.76;100147.18;1711935;83;21012;-63
2021/09/17 06:00:16;;;;;;;14.85;6.45;;;;;;;15.04;52.20;100141.80;1702022;83;21368;-63
2021/09/17 06:02:42;;;;;;;15.28;6.08;;;;;;;15.22;51.95;100139.08;1705703;83;21056;-63
2021/09/17 06:05:09;;;;;;;14.00;6.35;;;;;;;15.39;50.47;100135.53;1719527;83;21048;-63
2021/09/17 06:07:42;;;;;;;13.22;6.05;;;;;;;15.56;49.65;100139.11;1710914;82;20962;-65
2021/09/17 06:10:12;;;;;;;12.47;6.10;;;;;;;15.72;49.18;100134.36;1709407;83;20997;-63
2021/09/17 06:12:40;;;;;;;16.57;5.87;;;;;;;15.86;48.75;100136.42;1716049;83;21088;-64
2021/09/17 06:15:08;;;;;;;21.70;6.20;;;;;;;16.01;48.48;100130.79;1705680;82;21016;-64
2021/09/17 06:17:37;;;;;;;11.25;5.28;;;;;;;16.15;48.05;100125.34;1713173;83;20993;-63
2021/09/17 06:20:05;;;;;;;14.93;5.65;;;;;;;16.30;47.97;100122.35;1724748;83;21841;-64
2021/09/17 06:22:31;;;;;;;14.58;5.85;;;;;;;16.46;48.01;100122.88;1708291;83;20916;-65
2021/09/17 06:24:58;;;;;;;13.68;5.40;;;;;;;16.64;47.62;100123.22;1707629;84;21061;-66
2021/09/17 06:27:24;;;;;;;13.78;5.37;;;;;;;16.79;46.82;100121.56;1705700;83;20989;-67
2021/09/17 06:29:50;;;;;;;14.68;5.60;;;;;;;16.94;46.60;100122.56;1705915;83;20985;-64
2021/09/17 06:32:16;;;;;;;14.55;5.58;;;;;;;17.08;46.01;100119.22;1707341;83;21876;-65
2021/09/17 06:34:43;;;;;;;13.15;5.87;;;;;;;17.22;45.83;100117.67;1709199;82;21017;-64
2021/09/17 06:37:10;;;;;;;15.72;5.83;;;;;;;17.36;45.48;100114.28;1719857;83;21530;-64
2021/09/17 06:39:37;;;;;;;17.37;6.30;;;;;;;17.50;45.96;100110.58;1731028;82;20962;-64
2021/09/17 06:42:07;;;;;;;14.68;6.33;;;;;;;17.65;45.44;100106.98;1713325;82;21017;-64
2021/09/17 06:44:34;;;;;;;16.95;6.87;;;;;;;17.79;45.28;100116.66;1707425;82;22470;-64
2021/09/17 06:47:01;;;;;;;16.30;7.20;;;;;;;17.90;45.04;100111.75;1714522;82;21025;-64
2021/09/17 06:49:29;;;;;;;19.87;7.00;;;;;;;18.05;44.39;100101.16;1712640;82;21100;-64
2021/09/17 06:51:55;;;;;;;14.78;7.15;;;;;;;18.19;44.37;100099.55;1722025;83;20961;-65
2021/09/17 06:54:22;;;;;;;16.95;7.12;;;;;;;18.30;44.00;100091.11;1686267;83;21016;-65
2021/09/17 06:56:48;;;;;;;15.55;6.97;;;;;;;18.41;43.77;100091.19;1710416;83;21812;-65
2021/09/17 06:59:15;;;;;;;11.88;6.47;;;;;;;18.51;43.66;100085.09;1714415;83;21376;-65
2021/09/17 07:01:43;;;;;;;17.55;5.95;;;;;;;18.62;43.29;100084.66;1721983;83;21140;-64
2021/09/17 07:04:09;;;;;;;17.30;5.70;;;;;;;18.76;42.97;100082.56;1729168;82;21052;-64
2021/09/17 07:06:37;;;;;;;15.03;5.03;;;;;;;18.88;42.86;100073.07;1712901;82;20949;-65
2021/09/17 07:09:06;;;;;;;11.48;4.50;;;;;;;19.01;42.23;100074.27;1721644;82;21445;-66
2021/09/17 07:11:33;;;;;;;13.90;4.30;;;;;;;19.13;42.08;100074.16;1722631;82;21067;-66
2021/09/17 07:14:01;;;;;;;14.00;4.08;;;;;;;19.26;41.17;100073.00;1700850;84;21059;-65
2021/09/17 07:16:27;;;;;;;8.60;4.08;;;;;;;19.42;40.90;100071.47;1705576;83;21069;-65
2021/09/17 07:18:55;;;;;;;11.22;4.15;;;;;;;19.60;40.33;100071.63;1730420;82;21034;-66
2021/09/17 07:21:23;;;;;;;10.32;3.98;;;;;;;19.73;39.83;100073.11;1722574;82;21837;-65
2021/09/17 07:23:50;;;;;;;13.25;4.00;;;;;;;19.86;39.94;100065.72;1716217;82;21072;-66
2021/09/17 07:26:16;;;;;;;14.38;4.35;;;;;;;19.98;39.65;100061.03;1701635;84;21424;-66
2021/09/17 07:28:43;;;;;;;10.58;4.08;;;;;;;20.11;39.49;100068.38;1684464;84;21060;-65
2021/09/17 07:31:11;;;;;;;11.45;4.17;;;;;;;20.22;39.17;100065.69;1701813;84;21054;-65
2021/09/17 07:33:37;;;;;;;12.20;3.77;;;;;;;20.30;38.98;100062.88;1701926;83;21942;-65
2021/09/17 07:36:04;;;;;;;14.40;4.28;;;;;;;20.42;38.89;100054.63;1723814;83;20949;-65
2021/09/17 07:38:33;;;;;;;9.75;4.35;;;;;;;20.50;38.71;100053.18;1712561;83;20981;-65
2021/09/17 07:40:59;;;;;;;12.07;4.03;;;;;;;20.55;38.78;100048.05;1730983;82;21025;-65
2021/09/17 07:43:25;;;;;;;13.03;4.20;;;;;;;20.66;38.87;100052.59;1731228;82;20997;-65
2021/09/17 07:45:53;;;;;;;11.68;4.33;;;;;;;20.78;39.08;100050.51;1710577;82;20980;-65
2021/09/17 07:48:21;;;;;;;6.80;3.40;;;;;;;20.96;38.86;100038.45;1668441;85;21530;-65
2021/09/17 07:50:47;;;;;;;9.05;3.65;;;;;;;21.08;37.79;100036.85;1679097;84;21005;-65
2021/09/17 07:53:14;;;;;;;12.95;4.15;;;;;;;21.17;38.11;100033.49;1696222;84;20980;-65
2021/09/17 07:55:41;;;;;;;8.10;4.58;;;;;;;21.26;38.01;100029.13;1673884;84;21038;-65
2021/09/17 07:58:08;;;;;;;10.82;4.00;;;;;;;21.38;38.14;100036.10;1668214;86;21807;-65
2021/09/17 08:00:34;;;;;;;8.33;3.80;;;;;;;21.50;37.44;100033.14;1686953;84;20944;-65
2021/09/17 08:03:04;;;;;;;6.80;4.20;;;;;;;21.59;37.62;100032.45;1678724;84;21007;-64
2021/09/17 08:05:30;;;;;;;13.22;4.30;;;;;;;21.70;37.61;100024.63;1720245;83;21016;-65
2021/09/17 08:07:56;;;;;;;11.12;4.12;;;;;;;21.83;37.57;100017.13;1719836;83;20984;-63
2021/09/17 08:10:23;;;;;;;15.75;4.50;;;;;;;21.95;37.36;100020.88;1719898;83;21838;-62
2021/09/17 08:12:51;;;;;;;10.15;4.22;;;;;;;22.05;37.15;100012.41;1730410;82;21068;-62
2021/09/17 08:15:17;;;;;;;9.28;3.90;;;;;;;22.17;36.84;100002.72;1750024;82;20967;-63
2021/09/17 08:17:43;;;;;;;7.75;4.00;;;;;;;22.30;36.97;100007.81;1749729;81;21421;-63
2021/09/17 08:20:13;;;;;;;15.05;4.10;;;;;;;22.38;36.80;99996.81;1706741;82;21015;-65
2021/09/17 08:22:39;;;;;;;12.73;4.30;;;;;;;22.51;37.57;99990.09;1749891;82;22522;-63
2021/09/17 08:25:09;;;;;;;10.88;4.60;;;;;;;22.70;37.19;99987.07;1720613;82;21109;-64
2021/09/17 08:27:39;;;;;;;17.27;4.75;;;;;;;22.89;36.96;99983.53;1749927;82;20964;-64
2021/09/17 08:30:07;;;;;;;11.10;4.37;;;;;;;23.04;37.12;99978.70;1749914;81;20969;-64
2021/09/17 08:32:38;;;;;;;10.05;4.53;;;;;;;23.17;37.15;99969.77;1749612;82;20976;-66
2021/09/17 08:35:09;;;;;;;17.65;5.00;;;;;;;23.30;36.87;99968.88;1749952;82;21826;-67
2021/09/17 08:37:37;;;;;;;9.13;4.55;;;;;;;23.42;36.63;99963.10;1730842;82;21075;-66
2021/09/17 08:40:07;;;;;;;10.72;4.47;;;;;;;23.52;36.35;99962.63;1719904;83;20976;-67
2021/09/17 08:42:35;;;;;;;7.20;4.40;;;;;;;23.62;36.50;99960.33;1723025;82;20980;-66
2021/09/17 08:45:05;;;;;;;7.80;4.33;;;;;;;23.72;36.26;99951.76;1741838;82;21007;-66
2021/09/17 08:47:32;;;;;;;8.35;4.12;;;;;;;23.75;36.18;99953.52;1743806;81;21845;-66
2021/09/17 08:50:00;;;;;;;13.38;4.20;;;;;;;23.78;36.37;99945.50;1744407;82;20900;-66
2021/09/17 08:52:28;;;;;;;13.93;4.30;;;;;;;23.80;36.55;99948.80;1760759;80;21439;-66
2021/09/17 08:54:55;;;;;;;18.20;4.37;;;;;;;23.88;36.48;99949.89;1750342;79;20945;-66
2021/09/17 08:57:21;;;;;;;14.07;4.58;;;;;;;23.97;36.36;99939.14;1744469;80;20989;-66
2021/09/17 08:59:48;;;;;;;8.60;4.65;;;;;;;24.05;36.42;99944.79;1744358;81;21827;-66
2021/09/17 09:02:23;;;;;;;13.35;4.15;;;;;;;24.16;36.30;99944.89;1744257;81;22298;-67
2021/09/17 09:04:58;;;;;;;11.00;4.67;;;;;;;24.27;36.40;99943.34;1744404;82;21031;-65
2021/09/17 09:07:35;;;;;;;12.33;4.22;;;;;;;24.35;35.84;99939.58;1744651;82;20957;-66
2021/09/17 09:10:11;;;;;;;11.40;4.12;;;;;;;24.34;36.20;99936.58;1745107;80;20984;-65
2021/09/17 09:12:46;;;;;;;9.58;4.33;;;;;;;24.44;35.73;99939.59;1750909;80;21727;-65
2021/09/17 09:15:15;;;;;;;13.38;4.80;;;;;;;24.50;36.38;99936.80;1744410;82;20976;-65
2021/09/17 09:17:46;;;;;;;9.35;4.85;;;;;;;24.65;36.07;99935.11;1758474;80;20989;-65
2021/09/17 09:20:26;;;;;;;14.25;4.87;;;;;;;24.80;35.62;99936.92;1754319;80;21012;-65
2021/09/17 09:23:26;;;;;;;12.00;4.62;;;;;;;24.87;35.63;99932.77;1757148;80;21504;-65
2021/09/17 09:26:05;;;;;;;12.60;5.15;;;;;;;24.96;35.10;99932.77;1744459;82;22499;-65
2021/09/17 09:28:43;;;;;;;10.13;4.58;;;;;;;25.03;35.69;99932.20;1743617;80;21444;-65
2021/09/17 09:31:13;;;;;;;10.43;4.55;;;;;;;25.09;35.64;99923.70;1775107;80;21012;-65
2021/09/17 09:33:48;;;;;;;13.40;4.83;;;;;;;25.16;35.64;99920.92;1766874;80;21035;-65
2021/09/17 09:36:19;;;;;;;11.45;4.83;;;;;;;25.25;35.92;99907.39;1744487;82;20944;-66
2021/09/17 09:38:51;;;;;;;10.68;5.15;;;;;;;25.39;35.45;99908.87;1744311;82;21784;-65
2021/09/17 09:41:26;;;;;;;14.00;4.72;;;;;;;25.50;34.99;99910.78;1744431;82;20929;-65
2021/09/17 09:44:05;;;;;;;55.33;7.10;;;;;;;25.52;35.12;99906.48;1726192;80;21008;-65
2021/09/17 09:46:45;;;;;;;13.62;5.08;;;;;;;25.53;35.67;99907.61;1774678;80;20980;-65
2021/09/17 09:49:27;;;;;;;10.00;4.92;;;;;;;25.65;35.47;99910.33;1733633;80;21023;-67
2021/09/17 09:52:07;;;;;;;12.53;4.75;;;;;;;25.68;35.35;99901.25;1752833;80;22834;-67
2021/09/17 09:54:36;;;;;;;11.80;4.62;;;;;;;25.60;35.02;99907.52;1763535;80;21126;-66
2021/09/17 09:57:04;;;;;;;10.88;4.00;;;;;;;25.44;35.57;99897.34;1743415;82;20972;-66
2021/09/17 09:59:34;;;;;;;12.18;4.75;;;;;;;25.34;35.92;99885.20;1743256;82;21510;-67
2021/09/17 10:02:04;;;;;;;9.80;4.05;;;;;;;25.29;35.71;99881.56;1708090;80;21515;-67
2021/09/17 10:04:31;;;;;;;9.55;4.65;;;;;;;25.20;35.97;99883.77;1753020;80;21483;-66
2021/09/17 10:07:08;;;;;;;8.50;4.17;;;;;;;25.15;36.08;99889.02;1773878;80;21071;-65
2021/09/17 10:09:39;;;;;;;10.53;4.62;;;;;;;25.09;36.29;99879.96;1774341;80;22082;-66
2021/09/17 10:12:09;;;;;;;8.35;4.47;;;;;;;25.07;36.30;99876.64;1774076;80;21098;-66
2021/09/17 10:14:38;;;;;;;10.32;4.70;;;;;;;25.07;36.13;99881.22;1749910;80;21019;-66
2021/09/17 10:17:09;;;;;;;14.60;4.30;;;;;;;25.07;35.83;99879.87;1722897;82;21749;-66
2021/09/17 10:19:36;;;;;;;11.15;4.45;;;;;;;25.05;35.84;99884.69;1744373;80;21031;-66
2021/09/17 10:22:05;;;;;;;11.68;3.85;;;;;;;25.01;35.88;99881.59;1743281;82;21451;-65
2021/09/17 10:24:41;;;;;;;8.70;4.25;;;;;;;24.99;36.10;99878.80;1749935;80;22043;-66
2021/09/17 10:27:13;;;;;;;15.20;4.25;;;;;;;24.97;35.88;99875.50;1743534;82;21507;-67
2021/09/17 10:29:46;;;;;;;7.22;3.90;;;;;;;24.94;35.63;99880.02;1743441;82;20995;-67
2021/09/17 10:32:39;;;;;;;8.53;4.30;;;;;;;24.91;36.08;99881.31;1746932;82;21015;-67
2021/09/17 10:35:22;;;;;;;7.87;4.25;;;;;;;24.94;36.14;99870.04;1744844;80;21469;-67
2021/09/17 10:38:15;;;;;;;9.10;4.15;;;;;;;24.99;35.98;99860.70;1744621;80;20999;-65
2021/09/17 10:40:51;;;;;;;11.60;4.30;;;;;;;25.05;35.89;99855.78;1743544;82;21008;-66
2021/09/17 10:43:44;;;;;;;11.10;4.20;;;;;;;25.15;35.89;99853.06;1743499;82;22498;-66
2021/09/17 10:46:24;;;;;;;11.87;4.40;;;;;;;25.27;36.24;99842.57;1744740;82;21051;-66
2021/09/17 10:48:55;;;;;;;17.45;4.67;;;;;;;25.45;35.80;99832.22;1754810;80;21192;-66
2021/09/17 10:51:38;;;;;;;16.75;4.28;;;;;;;25.66;35.62;99825.43;1762498;80;21019;-67
2021/09/17 10:54:10;;;;;;;8.98;4.00;;;;;;;25.91;34.87;99832.84;1776389;80;21007;-66
2021/09/17 10:56:59;;;;;;;11.27;3.87;;;;;;;26.06;34.61;99831.02;1751929;82;21974;-66
2021/09/17 10:59:27;;;;;;;10.53;3.83;;;;;;;26.20;34.46;99822.94;1752412;81;20948;-65
2021/09/17 11:02:06;;;;;;;10.85;4.72;;;;;;;26.37;33.70;99826.28;1752631;80;20920;-66
2021/09/17 11:04:43;;;;;;;13.43;3.75;;;;;;;26.44;33.85;99816.14;1769123;80;20968;-66
2021/09/17 11:07:26;;;;;;;12.18;4.60;;;;;;;26.57;33.84;99815.08;1728234;82;46799;-66
2021/09/17 11:09:57;;;;;;;11.68;4.30;;;;;;;26.67;33.78;99813.92;1753479;80;21799;-66
2021/09/17 11:12:33;;;;;;;12.85;4.00;;;;;;;26.65;33.29;99810.64;1752733;82;21003;-66
2021/09/17 11:15:19;;;;;;;17.15;4.60;;;;;;;26.54;33.55;99809.61;1752519;82;21066;-66
2021/09/17 11:17:56;;;;;;;10.13;3.92;;;;;;;26.38;33.39;99808.47;1758923;80;20952;-65
2021/09/17 11:20:28;;;;;;;11.83;4.15;;;;;;;26.13;33.22;99805.98;1752427;82;21051;-66
2021/09/17 11:23:08;;;;;;;7.90;4.45;;;;;;;25.97;34.00;99797.27;1758623;80;20941;-66
2021/09/17 11:25:41;;;;;;;8.53;4.08;;;;;;;26.00;34.09;99792.72;1752494;82;20976;-66